Weather observations for the past three days for
Baltimore / Martin
Metric (Imperial)
Date Time (edt) Wind (kph) Vis. (km) Weather Sky Cond. Temperature (ºC) Relative Humidity Wind Chill (°C) Heat Index (°C) Pressure Precipitation (cm)
Air Dwpt 6 hour altimeter (cm) sea level (mb) 1 hr 3 hr 6 hr
Max. Min.
06 05:15 S 19 G 26 16.09 Partly Cloudy SCT120 18.1 13.4 74% 75.77 0.0
06 04:55 S 17 16.09 Fair CLR 18.1 13.4 74% 75.79 0.0
06 04:35 S 22 16.09 Fair CLR 18.2 13.5 74% 75.79 0.0
06 04:15 S 20 16.09 Fair CLR 18.5 13.5 73% 75.77 0.0
06 03:55 S 20 16.09 Fair CLR 18.6 13.6 73% 75.79 0.0
06 03:35 S 20 16.09 Fair CLR 18.5 13.7 74% 75.79 0.0
06 03:15 S 19 16.09 Partly Cloudy SCT120 19 13.6 71% 75.79 0.0
06 02:55 S 17 16.09 Fair CLR 19.2 13.5 70% 75.82 0.0
06 02:35 S 13 16.09 Fair CLR 19.3 13 67% 75.82 0.0
06 02:15 S 13 16.09 Fair CLR 19.3 12.7 66% 75.82 0.0
06 01:55 S 13 16.09 Fair CLR 19.1 12.6 21.5 19.1 66% 75.84 0.0
06 01:35 S 13 16.09 Fair CLR 19.2 12.7 66% 75.84 0.0
06 01:15 S 17 16.09 Fair CLR 20 12 60% 75.84 0.0
06 00:55 S 17 16.09 Fair CLR 20 12.1 61% 75.84 0.0
06 00:35 S 17 16.09 Fair CLR 19.7 12 61% 75.84 0.0
06 00:15 S 15 16.09 Fair CLR 19.7 11.9 61% 75.84 0.0
05 23:55 S 15 16.09 Fair CLR 20.1 11.3 57% 75.84 0.0
05 23:35 S 13 16.09 Fair CLR 20.8 10.6 52% 75.84 0.0
05 23:15 S 17 16.09 Fair CLR 20.6 10.7 53% 75.84 0.0
05 22:55 S 17 16.09 Fair CLR 21.1 10.2 50% 75.84 0.0
05 22:35 S 15 16.09 Fair CLR 20.4 10.3 52% 75.84 0.0
05 22:15 S 13 16.09 Fair CLR 20.2 10.8 55% 75.84 0.0
05 21:45 S 13 16.09 Fair CLR 21 10 50% 75.84 0.0
05 20:50 S 19 16.09 Fair CLR 21 12 57% 75.79 0.0
05 19:49 S 17 16.09 Fair CLR 22 11 50% 75.74 0.0
05 18:59 S 19 16.09 Fair CLR 23 10 44% 75.74 0.0
05 17:47 S 19 16.09 Fair CLR 26 8 32% 26 75.74 0.0
05 16:50 S 24 16.09 Fair CLR 26 10 37% 26 75.74 0.0
05 15:55 S 28 G 39 16.09 Fair CLR 26 10 37% 26 75.74 0.0
05 14:45 S 28 16.09 Fair CLR 26 10 37% 26 75.82 0.0
05 12:53 S 24 G 31 16.09 Fair CLR 24 11 44% 25 75.9 0.0
05 11:54 S 20 16.09 Fair CLR 23 11 47% 75.97 0.0
05 10:45 S 17 16.09 Fair CLR 22 11 50% 75.97 0.0
05 09:45 SW 9 16.09 Fair CLR 22 8 41% 75.97 0.0
05 08:45 SW 7 16.09 Fair CLR 20 7 43% 76 0.0
05 07:45 SW 7 16.09 Fair CLR 18 7 49% 75.97 0.0
05 06:45 Calm 16.09 Fair CLR 15 9 68% 75.92 0.0
05 05:54 SW 7 16.09 Fair CLR 16 7 55% 75.9 0.0
05 05:15 SW 7 16.09 Fair CLR 16.7 6.7 52% 75.87 0.0
05 04:55 W 7 16.09 Fair CLR 16.5 7 54% 75.87 0.0
05 04:35 W 6 16.09 Fair CLR 16.4 7.5 56% 75.87 0.0
05 04:15 SW 6 16.09 Fair CLR 15.7 8.6 63% 75.87 0.0
05 03:35 SW 7 16.09 Fair CLR 16.1 9.5 65% 75.87 0.0
05 03:15 S 9 16.09 Fair CLR 16 10.5 70% 75.87 0.0
05 02:55 S 9 16.09 Fair CLR 16.1 10.4 69% 75.87 0.0
05 02:35 S 11 16.09 Partly Cloudy SCT120 16 11.1 73% 75.87 0.0
05 02:15 Calm 16.09 Mostly Cloudy BKN120 16.4 8 58% 75.87 0.0
05 01:55 Calm 16.09 Partly Cloudy SCT120 16.6 8.6 19.9 16.1 59% 75.87 0.0
05 01:35 S 6 16.09 Partly Cloudy SCT110 16.7 9 61% 75.87 0.0
05 01:15 S 7 16.09 Fair CLR 16.6 9.2 62% 75.87 0.0
05 00:55 S 7 16.09 Fair CLR 16.6 9.2 62% 75.87 0.0
05 00:35 Calm 16.09 Fair CLR 16.7 9.8 64% 75.87 0.0
05 00:15 S 6 16.09 Fair CLR 16.1 10.7 71% 75.87 0.0
04 23:55 S 6 16.09 Fair CLR 16.8 9.9 64% 75.84 0.0
04 23:35 S 7 16.09 Fair CLR 17.5 9.7 60% 75.84 0.0
04 23:15 S 11 16.09 Fair CLR 17.8 9.5 58% 75.84 0.0
04 22:55 S 15 16.09 Fair CLR 18.5 9.2 55% 75.84 0.0
04 22:35 S 22 16.09 Fair CLR 19 8.5 51% 75.84 0.0
04 22:15 S 22 G 31 16.09 Fair CLR 19.1 7.8 48% 75.84 0.0
04 21:47 SW 13 16.09 Fair CLR 19 8 49% 75.84 0.0
04 20:48 S 13 G 28 16.09 Partly Cloudy SCT095 19 8 49% 75.82 0.0
04 18:47 SW 22 G 35 16.09 Fair CLR 22 4 31% 75.79 0.0
04 17:45 S 22 G 31 16.09 Fair CLR 23 5 31% 75.79 0.0
04 16:53 S 22 16.09 Fair CLR 23 5 31% 75.82 0.0
04 15:45 S 19 16.09 Fair CLR 22 6 36% 75.9 0.0
04 14:46 S 17 16.09 Fair CLR 22 4 31% 75.97 0.0
04 13:45 S 17 16.09 Fair CLR 21 5 35% 76.02 0.0
04 12:55 SE 13 16.09 Fair CLR 20 6 40% 76.05 0.0
04 11:46 S 13 16.09 Fair CLR 19 6 43% 76.1 0.0
04 10:50 SE 9 16.09 Fair CLR 18 3 37% 76.15 0.0
04 09:50 S 9 16.09 Fair CLR 16 3 42% 76.17 0.0
04 08:45 SW 13 16.09 Fair CLR 14 2 44% 76.17 0.0
04 07:45 SW 7 16.09 Fair CLR 13 3 51% 76.2 0.0
04 06:48 SW 7 16.09 Mostly Cloudy BKN100 11 3 58% 76.2 0.0
04 05:45 Calm 16.09 Mostly Cloudy BKN110 9 3 66% 76.23 0.0
04 05:15 Calm 16.09 Mostly Cloudy BKN100 10.9 2.6 57% 76.23 0.0
04 04:55 Calm 16.09 Overcast OVC110 10.9 2.7 57% 76.23 0.0
04 04:35 Calm 16.09 Partly Cloudy SCT120 11.3 1.9 53% 76.23 0.0
04 04:15 W 6 16.09 Fair CLR 11 1.4 52% 76.23 0.0
04 03:55 W 6 16.09 Fair CLR 11.1 1.2 51% 76.23 0.0
04 03:35 W 6 16.09 Fair CLR 11.2 1.2 50% 76.23 0.0
04 03:15 W 6 16.09 Fair CLR 11.1 1 50% 76.23 0.0
04 02:55 Calm 16.09 Fair CLR 10.7 1.3 53% 76.23 0.0
04 02:35 Calm 16.09 Fair CLR 9.2 1.9 61% 76.23 0.0
04 02:17 Calm 16.09 Fair CLR 8.6 2.1 64% 76.25 0.0
04 01:55 Calm 16.09 Fair CLR 9 2 15.2 6.6 62% 76.25 0.0
04 01:35 Calm 16.09 Fair CLR 9 1.6 60% 76.23 0.0
04 01:15 W 6 16.09 Fair CLR 11.1 0.1 47% 76.23 0.0
04 00:55 Calm 16.09 Fair CLR 8.2 2.6 68% 76.25 0.0
04 00:35 Calm 16.09 Fair CLR 7.9 2.8 70% 76.25 0.0
04 00:15 Calm 16.09 Fair CLR 8.8 2.1 63% 76.23 0.0
03 23:55 Calm 16.09 Fair CLR 8.7 1.4 60% 76.23 0.0
03 23:35 Calm 16.09 Fair CLR 8.4 1.5 62% 76.2 0.0
03 23:15 Calm 16.09 Fair CLR 9.3 1.5 59% 76.2 0.0
03 22:55 Calm 16.09 Fair CLR 9.8 2.2 59% 76.2 0.0
03 22:35 Calm 16.09 Fair CLR 9.9 3.3 64% 76.2 0.0
03 22:15 Calm 16.09 Fair CLR 9.9 2.7 61% 76.2 0.0
03 21:45 Calm 16.09 Fair CLR 11 2 54% 76.17 0.0
03 20:45 Calm 16.09 Fair CLR 12 -2 38% 76.15 0.0
03 19:54 NW 6 16.09 Fair CLR 15 -5 25% 76.12 0.0
03 18:45 NW 19 16.09 Fair CLR 17 -6 20% 76.1 0.0
03 17:54 NW 20 G 35 16.09 Fair CLR 17 -7 19% 76.1 0.0
03 16:54 NW 24 G 37 16.09 Fair CLR 17 -7 19% 76.1 0.0
03 15:54 W 22 G 41 16.09 Fair CLR 16 -6 22% 76.15 0.0
03 14:54 NW 24 G 35 16.09 Partly Cloudy SCT075 16 -5 23% 76.17 0.0
03 14:45 NW 20 G 31 16.09 Partly Cloudy SCT075 16 -5 23% 76.2 0.0
03 13:47 NW 20 G 33 16.09 Partly Cloudy SCT075 15 -5 25% 76.23 0.0
03 12:47 NW 24 G 37 16.09 Fair CLR 14 -6 25% 76.25 0.0
03 11:45 N 19 G 43 16.09 Fair CLR 13 -6 26% 76.3 0.0
03 10:45 N 30 G 35 16.09 Mostly Cloudy BKN060 11 -5 32% 76.3 0.0
03 09:45 NW 30 G 39 16.09 Partly Cloudy SCT050 11 -4 35% 76.3 0.0
03 08:50 N 31 G 44 16.09 Fair CLR 10 -3 40% 7 76.3 0.0
03 07:45 NW 24 G 33 16.09 Fair CLR 8 -2 50% 5 76.25 0.0
03 06:49 NW 17 16.09 Fair CLR 6 -1 61% 3 76.2 0.0
03 05:45 NW 19 16.09 Fair CLR 6 -1 61% 3 76.12 0.0
Date Time (edt) Wind (kph) Vis. (km) Weather Sky Cond. Air Dwpt Max. Min. Relative Humidity Wind Chill (°C) Heat Index (°C) altimeter (cm) sea level (mb) 1 hr 3 hr 6 hr
6 hour
Temperature (ºC) Pressure Precipitation (cm)